Terminal Aerodrome Forecast
Issued by NWS New Orleans/Baton Rouge, LA

Home | Current Version | Previous Version | Text Only | Print | Product List | Glossary On
Versions: 1 2 3 4 5 6 7 8 9 10 11 12 13 14 15 16 17 18 19 20 21 22 23 24 25 26 27 28 29 30 31 32 33 34 35 36 37 38 39 40 41 42 43 44 45 46 47 48
742
FTUS44 KLIX 212110 AAA
TAFNEW
TAF AMD
KNEW 212110Z 2121/2218 29006KT P6SM VCTS SCT025CB BKN090
     FM220000 VRB03KT P6SM BKN150
     FM220900 34007KT P6SM SCT080
     FM221100 35007KT P6SM BKN025
     FM221700 34007KT P6SM SCT100=

USA.gov is the U.S. government's official web portal to all federal, state and local government web resources and services.